This is the latest recevied weather packets stored in our database for station/object DB7GV-8. If no packets are shown the sender has not sent any weather packets the latest 10 day(s).
| Time | Temp. | Humidity | Pressure | Rain* | Wind** | Luminosity | Snow |
|---|---|---|---|---|---|---|---|
| 1778209285 | 6.11° C | 86% | 1016.9 hPa | - | - | - | - |
| 1778208379 | 6.11° C | 86% | 1016.9 hPa | - | - | - | - |
| 1778207474 | 6.11° C | 86% | 1016.9 hPa | - | - | - | - |
| 1778206569 | 6.67° C | 85% | 1016.8 hPa | - | - | - | - |
| 1778205663 | 6.67° C | 85% | 1016.9 hPa | - | - | - | - |
| 1778204758 | 7.22° C | 85% | 1016.8 hPa | - | - | - | - |
| 1778203853 | 7.22° C | 84% | 1016.8 hPa | - | - | - | - |
| 1778202948 | 7.22° C | 84% | 1016.8 hPa | - | - | - | - |
| 1778202041 | 7.22° C | 84% | 1016.7 hPa | - | - | - | - |
| 1778201136 | 7.78° C | 84% | 1016.8 hPa | - | - | - | - |
| 1778200231 | 7.78° C | 83% | 1016.8 hPa | - | - | - | - |
| 1778199326 | 7.78° C | 83% | 1016.9 hPa | - | - | - | - |
| 1778198420 | 8.33° C | 83% | 1016.9 hPa | - | - | - | - |
| 1778197515 | 8.33° C | 83% | 1016.9 hPa | - | - | - | - |
| 1778194798 | 9.44° C | 82% | 1017.3 hPa | - | - | - | - |
| 1778193893 | 10° C | 81% | 1017.4 hPa | - | - | - | - |
| 1778192988 | 10° C | 80% | 1017.3 hPa | - | - | - | - |
| 1778192083 | 10° C | 80% | 1017.3 hPa | - | - | - | - |
| 1778191177 | 10.56° C | 79% | 1017.4 hPa | - | - | - | - |
| 1778190272 | 10.56° C | 79% | 1017.5 hPa | - | - | - | - |
| 1778189366 | 10° C | 79% | 1017.4 hPa | - | - | - | - |
| 1778188460 | 10° C | 79% | 1017.2 hPa | - | - | - | - |
| 1778187555 | 10° C | 78% | 1017.2 hPa | - | - | - | - |
| 1778186650 | 10.56° C | 77% | 1017.2 hPa | - | - | - | - |
| 1778185745 | 10.56° C | 77% | 1017.1 hPa | - | - | - | - |
* Rain since midnight (hover to see other rain measurements)
** Current wind speed in m/s (hover to see current wind gust speed)